Time;durP1;ratioP1;P1;durP2;ratioP2;P2;SDS_P1;SDS_P2;PMS_P1;PMS_P2;Temp;Humidity;BMP_temperature;BMP_pressure;BME280_temperature;BME280_humidity;BME280_pressure;Samples;Min_cycle;Max_cycle;Signal;HPM_P1;HPM_P2
2022/01/14 00:02:10;;;;;;;79.17;31.47;;;;;;;;;;4967862;28;20058;-82
2022/01/14 00:04:36;;;;;;;80.57;32.33;;;;;;;;;;4970544;28;20026;-80
2022/01/14 00:07:09;;;;;;;79.67;31.37;;;;;;;;;;5053670;28;20470;-80
2022/01/14 00:09:35;;;;;;;95.57;36.13;;;;;;;;;;5037635;28;20476;-78
2022/01/14 00:12:04;;;;;;;84.13;32.03;;;;;;;;;;5043419;28;20028;-82
2022/01/14 00:14:41;;;;;;;85.47;34.63;;;;;;;;;;5032352;28;20523;-79
2022/01/14 00:17:11;;;;;;;87.37;32.97;;;;;;;;;;5042280;28;20280;-81
2022/01/14 00:19:36;;;;;;;;;;;;;;;;;;5038011;28;20010;-80
2022/01/14 00:22:07;;;;;;;94.53;32.20;;;;;;;;;;5041049;28;20421;-81
2022/01/14 00:32:58;;;;;;;90.50;32.23;;;;;;;;;;5039239;28;20078;-79
2022/01/14 00:35:23;;;;;;;89.38;32.65;;;;;;;;;;5041470;28;20071;-80
2022/01/14 00:37:48;;;;;;;94.23;34.43;;;;;;;;;;5044413;28;20021;-81
2022/01/14 00:40:14;;;;;;;94.07;33.77;;;;;;;;;;5040849;28;20064;-83
2022/01/14 00:42:39;;;;;;;94.13;34.73;;;;;;;;;;5033482;28;20528;-81
2022/01/14 00:45:07;;;;;;;93.50;32.97;;;;;;;;;;5038632;28;20025;-83
2022/01/14 00:47:34;;;;;;;93.07;34.87;;;;;;;;;;5043079;28;20076;-80
2022/01/14 00:49:59;;;;;;;93.43;34.93;;;;;;;;;;5041111;28;20059;-80
2022/01/14 00:52:25;;;;;;;91.73;33.33;;;;;;;;;;5042330;28;20029;-79
2022/01/14 00:54:50;;;;;;;93.07;34.23;;;;;;;;;;5039664;28;20021;-80
2022/01/14 00:57:27;;;;;;;97.77;34.70;;;;;;;;;;5035555;28;20037;-80
2022/01/14 00:59:52;;;;;;;103.73;34.50;;;;;;;;;;5037660;28;20059;-80
2022/01/14 01:02:17;;;;;;;95.77;33.17;;;;;;;;;;5035145;28;20381;-79
2022/01/14 01:04:43;;;;;;;97.23;34.70;;;;;;;;;;5041145;28;20022;-79
2022/01/14 01:07:09;;;;;;;103.40;36.17;;;;;;;;;;5037888;28;20025;-80
2022/01/14 01:09:37;;;;;;;97.23;34.00;;;;;;;;;;5034427;28;20441;-81
2022/01/14 01:15:04;;;;;;;96.10;33.67;;;;;;;;;;5039406;28;20029;-81
2022/01/14 01:17:17;;;;;;;100.93;35.63;;;;;;;;;;5034369;28;20089;-81
2022/01/14 01:19:43;;;;;;;91.13;33.33;;;;;;;;;;5029988;28;20112;-81
2022/01/14 01:22:08;;;;;;;98.13;33.10;;;;;;;;;;5030959;28;20029;-80
2022/01/14 01:24:34;;;;;;;103.30;36.13;;;;;;;;;;5028778;28;20025;-81
2022/01/14 01:27:04;;;;;;;103.43;36.00;;;;;;;;;;5018524;28;20042;-81
2022/01/14 01:29:45;;;;;;;100.47;34.50;;;;;;;;;;5027469;28;20022;-81
2022/01/14 01:32:10;;;;;;;97.83;33.07;;;;;;;;;;5030241;28;20124;-80
2022/01/14 01:34:35;;;;;;;91.73;32.23;;;;;;;;;;5026430;28;20112;-81
2022/01/14 01:37:01;;;;;;;94.73;33.07;;;;;;;;;;5026667;28;20080;-80
2022/01/14 01:39:28;;;;;;;98.20;34.03;;;;;;;;;;5024157;28;20594;-79
2022/01/14 01:41:55;;;;;;;97.93;34.77;;;;;;;;;;5025754;28;20045;-79
2022/01/14 01:44:21;;;;;;;97.50;35.93;;;;;;;;;;5030251;28;20064;-79
2022/01/14 01:46:47;;;;;;;107.73;38.83;;;;;;;;;;5022724;28;20029;-79
2022/01/14 01:49:14;;;;;;;102.90;36.00;;;;;;;;;;5028300;28;20026;-80
2022/01/14 01:51:39;;;;;;;105.33;35.57;;;;;;;;;;5028826;28;20767;-80
2022/01/14 01:54:05;;;;;;;90.03;32.00;;;;;;;;;;5028669;28;20033;-81
2022/01/14 01:56:30;;;;;;;98.70;36.53;;;;;;;;;;5029460;28;20116;-81
2022/01/14 01:58:56;;;;;;;99.23;35.67;;;;;;;;;;5027208;28;20539;-81
2022/01/14 02:01:22;;;;;;;100.60;34.43;;;;;;;;;;5022890;28;20068;-81
2022/01/14 02:03:47;;;;;;;102.93;36.47;;;;;;;;;;5030204;28;20097;-80
2022/01/14 02:06:12;;;;;;;98.60;34.73;;;;;;;;;;5027570;28;20045;-81
2022/01/14 02:08:38;;;;;;;90.67;33.20;;;;;;;;;;5025237;28;20030;-81
2022/01/14 02:11:03;;;;;;;103.33;36.53;;;;;;;;;;5025942;28;20060;-79
2022/01/14 02:13:30;;;;;;;105.33;36.80;;;;;;;;;;5030001;28;20460;-79
2022/01/14 02:23:44;;;;;;;91.63;33.93;;;;;;;;;;5027722;28;20087;-79
2022/01/14 02:26:10;;;;;;;96.87;34.87;;;;;;;;;;5022066;28;20129;-78
2022/01/14 02:28:35;;;;;;;103.30;35.47;;;;;;;;;;5025268;28;20132;-79
2022/01/14 02:31:01;;;;;;;95.27;33.67;;;;;;;;;;5023564;28;20026;-81
2022/01/14 02:33:26;;;;;;;97.63;35.60;;;;;;;;;;5018226;28;20034;-80
2022/01/14 02:35:51;;;;;;;97.23;34.20;;;;;;;;;;5030990;28;20025;-79
2022/01/14 02:38:17;;;;;;;97.03;34.80;;;;;;;;;;5024931;28;20140;-78
2022/01/14 02:40:42;;;;;;;103.37;35.37;;;;;;;;;;5032348;28;20128;-79
2022/01/14 02:43:12;;;;;;;88.20;33.33;;;;;;;;;;5041668;28;20036;-82
2022/01/14 02:45:38;;;;;;;92.33;35.27;;;;;;;;;;5043538;28;20026;-79
2022/01/14 02:48:03;;;;;;;96.03;35.27;;;;;;;;;;5037416;28;20035;-79
2022/01/14 02:50:37;;;;;;;97.57;35.87;;;;;;;;;;5030976;28;20033;-81
2022/01/14 02:53:12;;;;;;;92.83;34.87;;;;;;;;;;5027704;28;20739;-80
2022/01/14 02:55:43;;;;;;;95.70;35.10;;;;;;;;;;5025565;28;20025;-79
2022/01/14 02:58:08;;;;;;;97.50;36.20;;;;;;;;;;5015713;28;20033;-79
2022/01/14 03:00:33;;;;;;;104.73;35.70;;;;;;;;;;5023123;28;20026;-78
2022/01/14 03:02:59;;;;;;;90.33;34.23;;;;;;;;;;5027969;28;20820;-79
2022/01/14 03:05:26;;;;;;;89.13;33.67;;;;;;;;;;5025347;28;20072;-80
2022/01/14 03:07:51;;;;;;;92.33;35.53;;;;;;;;;;5018921;28;20061;-78
2022/01/14 03:10:17;;;;;;;92.57;34.40;;;;;;;;;;5026064;28;20508;-80
2022/01/14 03:12:43;;;;;;;88.20;34.63;;;;;;;;;;5027923;28;20420;-80
2022/01/14 03:15:09;;;;;;;86.43;32.33;;;;;;;;;;5019154;28;20072;-81
2022/01/14 03:17:34;;;;;;;88.13;33.23;;;;;;;;;;5019858;28;20021;-81
2022/01/14 03:20:01;;;;;;;80.70;33.93;;;;;;;;;;5025353;28;20030;-79
2022/01/14 03:22:36;;;;;;;80.03;33.30;;;;;;;;;;5023084;28;20417;-81
2022/01/14 03:27:50;;;;;;;88.40;33.10;;;;;;;;;;5027674;28;20079;-81
2022/01/14 03:30:15;;;;;;;85.93;32.77;;;;;;;;;;5020701;28;20045;-82
2022/01/14 03:32:41;;;;;;;90.97;34.47;;;;;;;;;;5028042;28;20067;-82
2022/01/14 03:35:07;;;;;;;80.43;32.00;;;;;;;;;;5029508;28;20100;-80
2022/01/14 03:37:32;;;;;;;79.67;31.23;;;;;;;;;;5022260;28;20109;-80
2022/01/14 03:39:57;;;;;;;88.00;34.40;;;;;;;;;;5020572;28;20612;-80
2022/01/14 03:42:22;;;;;;;86.40;33.30;;;;;;;;;;5017891;28;20022;-82
2022/01/14 03:44:47;;;;;;;81.07;31.20;;;;;;;;;;5023825;28;20034;-80
2022/01/14 03:47:13;;;;;;;87.67;32.17;;;;;;;;;;5018760;28;20041;-81
2022/01/14 03:49:38;;;;;;;86.17;34.07;;;;;;;;;;5020465;28;20461;-79
2022/01/14 03:52:03;;;;;;;86.47;33.27;;;;;;;;;;5024517;28;20107;-81
2022/01/14 03:54:29;;;;;;;83.80;32.07;;;;;;;;;;5018281;28;20160;-81
2022/01/14 03:56:55;;;;;;;88.23;32.87;;;;;;;;;;5024192;28;20033;-81
2022/01/14 03:59:20;;;;;;;84.03;33.27;;;;;;;;;;5027922;28;20029;-78
2022/01/14 04:01:45;;;;;;;83.30;31.30;;;;;;;;;;5021299;28;20481;-78
2022/01/14 04:04:10;;;;;;;85.03;29.70;;;;;;;;;;5025923;28;20029;-79
2022/01/14 04:06:35;;;;;;;81.67;30.20;;;;;;;;;;5025831;28;20064;-79
2022/01/14 04:09:01;;;;;;;80.40;30.43;;;;;;;;;;5020988;28;20473;-79
2022/01/14 04:11:26;;;;;;;77.23;30.80;;;;;;;;;;5026050;28;20102;-77
2022/01/14 04:13:54;;;;;;;79.07;30.37;;;;;;;;;;5025900;28;20018;-81
2022/01/14 04:16:21;;;;;;;78.53;30.17;;;;;;;;;;5023207;28;20136;-79
2022/01/14 04:18:47;;;;;;;80.63;31.63;;;;;;;;;;5022532;28;20104;-79
2022/01/14 04:21:12;;;;;;;80.40;31.90;;;;;;;;;;5023035;28;20150;-79
2022/01/14 04:23:37;;;;;;;81.23;32.17;;;;;;;;;;5020315;28;20030;-78
2022/01/14 04:26:03;;;;;;;73.90;29.03;;;;;;;;;;5025407;28;20125;-79
2022/01/14 04:28:30;;;;;;;78.27;31.10;;;;;;;;;;5024739;28;20346;-78
2022/01/14 04:30:56;;;;;;;79.17;31.43;;;;;;;;;;5022775;28;20075;-78
2022/01/14 04:33:22;;;;;;;78.67;30.90;;;;;;;;;;5025327;28;20021;-81
2022/01/14 04:35:47;;;;;;;72.00;28.07;;;;;;;;;;5024346;28;20484;-80
2022/01/14 04:38:13;;;;;;;80.47;32.27;;;;;;;;;;5021500;28;20032;-79
2022/01/14 04:40:39;;;;;;;71.33;29.57;;;;;;;;;;5024861;28;20431;-79
2022/01/14 04:43:06;;;;;;;76.20;29.47;;;;;;;;;;5021200;28;20543;-79
2022/01/14 04:48:04;;;;;;;67.43;27.37;;;;;;;;;;5016704;28;20561;-80
2022/01/14 04:50:29;;;;;;;83.23;30.20;;;;;;;;;;5026052;28;20037;-80
2022/01/14 04:52:54;;;;;;;69.40;27.40;;;;;;;;;;5030581;28;20034;-79
2022/01/14 04:55:21;;;;;;;69.20;27.70;;;;;;;;;;5023346;28;20116;-78
2022/01/14 04:57:46;;;;;;;71.00;29.70;;;;;;;;;;5025182;28;20046;-79
2022/01/14 05:00:13;;;;;;;66.20;27.57;;;;;;;;;;5030433;28;20056;-79
2022/01/14 05:02:39;;;;;;;71.23;29.07;;;;;;;;;;5024103;28;20021;-79
2022/01/14 05:05:08;;;;;;;68.20;28.23;;;;;;;;;;5026307;28;20694;-79
2022/01/14 05:07:33;;;;;;;72.82;28.95;;;;;;;;;;5023935;28;20041;-78
2022/01/14 05:10:17;;;;;;;69.53;27.37;;;;;;;;;;5027093;28;20120;-79
2022/01/14 05:12:42;;;;;;;69.47;28.23;;;;;;;;;;5030946;28;20459;-78
2022/01/14 05:15:08;;;;;;;70.30;28.30;;;;;;;;;;5027059;28;20017;-78
2022/01/14 05:17:34;;;;;;;71.90;28.07;;;;;;;;;;5030602;28;20029;-79
2022/01/14 05:19:59;;;;;;;71.40;28.27;;;;;;;;;;5026250;28;20108;-76
2022/01/14 05:22:25;;;;;;;71.47;27.63;;;;;;;;;;5026297;28;20065;-78
2022/01/14 05:24:50;;;;;;;67.47;27.17;;;;;;;;;;5028267;28;20026;-80
2022/01/14 05:27:15;;;;;;;66.70;27.13;;;;;;;;;;5028402;28;20033;-80
2022/01/14 05:29:40;;;;;;;57.27;25.73;;;;;;;;;;5026722;28;20021;-80
2022/01/14 05:32:09;;;;;;;65.10;27.23;;;;;;;;;;5025450;28;20481;-78
2022/01/14 05:34:35;;;;;;;62.78;25.45;;;;;;;;;;5030729;28;20057;-77
2022/01/14 05:37:01;;;;;;;58.70;25.43;;;;;;;;;;5030626;28;20060;-80
2022/01/14 05:39:26;;;;;;;60.87;25.77;;;;;;;;;;5028602;28;20021;-79
2022/01/14 05:41:52;;;;;;;55.07;23.97;;;;;;;;;;5026429;28;20017;-77
2022/01/14 05:44:18;;;;;;;55.47;23.10;;;;;;;;;;5031666;28;20017;-77
2022/01/14 05:46:43;;;;;;;58.93;24.07;;;;;;;;;;5030099;28;20374;-79
2022/01/14 05:49:08;;;;;;;57.07;24.53;;;;;;;;;;5024022;28;20022;-77
2022/01/14 05:51:33;;;;;;;56.13;24.43;;;;;;;;;;5031736;28;20034;-79
2022/01/14 05:53:59;;;;;;;49.57;21.43;;;;;;;;;;5028882;28;20024;-78
2022/01/14 05:56:24;;;;;;;60.33;24.17;;;;;;;;;;5024229;28;20535;-79
2022/01/14 05:58:49;;;;;;;53.47;24.50;;;;;;;;;;5024157;28;20046;-80
2022/01/14 06:01:14;;;;;;;53.50;22.50;;;;;;;;;;5025175;28;20052;-79
2022/01/14 06:03:39;;;;;;;57.63;25.20;;;;;;;;;;5027654;28;20053;-78
2022/01/14 06:06:05;;;;;;;57.27;24.17;;;;;;;;;;5025208;28;20064;-79
2022/01/14 06:08:30;;;;;;;54.10;22.87;;;;;;;;;;5020194;28;20013;-78
2022/01/14 06:10:56;;;;;;;53.17;23.20;;;;;;;;;;5022548;28;20049;-78
2022/01/14 06:13:21;;;;;;;58.47;24.77;;;;;;;;;;5025313;28;20454;-78
2022/01/14 06:15:46;;;;;;;60.60;25.37;;;;;;;;;;5030898;28;20037;-78
2022/01/14 06:18:11;;;;;;;61.93;26.40;;;;;;;;;;5026313;28;20026;-77
2022/01/14 06:20:36;;;;;;;57.07;25.43;;;;;;;;;;5026139;28;20021;-79
2022/01/14 06:23:02;;;;;;;64.17;25.03;;;;;;;;;;5028211;28;20100;-81
2022/01/14 06:25:27;;;;;;;61.93;24.77;;;;;;;;;;5026082;28;20080;-73
2022/01/14 06:27:52;;;;;;;63.47;25.77;;;;;;;;;;5025314;28;20026;-78
2022/01/14 06:30:17;;;;;;;59.10;25.07;;;;;;;;;;5020857;28;20091;-80
2022/01/14 06:32:42;;;;;;;65.90;28.23;;;;;;;;;;5029260;28;20022;-80
2022/01/14 06:35:09;;;;;;;55.63;25.13;;;;;;;;;;5032883;28;20021;-80
2022/01/14 06:37:34;;;;;;;57.53;23.87;;;;;;;;;;5021362;28;20110;-81
2022/01/14 06:39:59;;;;;;;57.23;23.87;;;;;;;;;;5018777;28;20184;-81
2022/01/14 06:42:25;;;;;;;55.33;23.00;;;;;;;;;;5031723;28;20021;-82
2022/01/14 06:44:50;;;;;;;52.17;23.47;;;;;;;;;;5026891;28;20030;-80
2022/01/14 06:47:15;;;;;;;53.53;22.47;;;;;;;;;;5031179;28;20049;-81
2022/01/14 06:49:40;;;;;;;54.23;22.83;;;;;;;;;;5028768;28;20036;-80
2022/01/14 06:52:05;;;;;;;48.63;22.40;;;;;;;;;;5033660;28;20025;-79
2022/01/14 06:54:31;;;;;;;52.83;23.67;;;;;;;;;;5030512;28;20036;-80
2022/01/14 06:56:56;;;;;;;52.47;23.37;;;;;;;;;;5028194;28;20083;-79
2022/01/14 06:59:21;;;;;;;51.03;22.93;;;;;;;;;;5026387;28;20024;-81
2022/01/14 07:01:47;;;;;;;51.47;23.13;;;;;;;;;;5026398;28;20544;-80
2022/01/14 07:04:12;;;;;;;55.80;23.57;;;;;;;;;;5029776;28;20036;-81
2022/01/14 07:06:37;;;;;;;53.23;23.43;;;;;;;;;;5028150;28;20049;-79
2022/01/14 07:09:03;;;;;;;48.40;21.90;;;;;;;;;;5030045;28;20045;-82
2022/01/14 07:11:34;;;;;;;49.63;23.93;;;;;;;;;;5027118;28;20040;-79
2022/01/14 07:13:59;;;;;;;42.87;19.93;;;;;;;;;;5027260;28;20036;-81
2022/01/14 07:16:25;;;;;;;43.73;21.23;;;;;;;;;;5025368;28;20449;-81
2022/01/14 07:18:51;;;;;;;42.47;19.87;;;;;;;;;;5025067;28;20113;-81
2022/01/14 07:21:16;;;;;;;50.10;22.57;;;;;;;;;;5017741;28;20021;-79
2022/01/14 07:23:42;;;;;;;43.47;19.97;;;;;;;;;;5034947;28;20026;-80
2022/01/14 07:26:07;;;;;;;46.53;22.57;;;;;;;;;;5024938;28;20041;-78
2022/01/14 07:28:32;;;;;;;38.80;19.07;;;;;;;;;;5028518;28;20400;-78
2022/01/14 07:30:57;;;;;;;42.93;20.80;;;;;;;;;;5029376;28;20097;-80
2022/01/14 07:33:22;;;;;;;46.53;20.97;;;;;;;;;;5028960;28;20021;-80
2022/01/14 07:35:48;;;;;;;42.60;19.70;;;;;;;;;;5029613;28;20060;-80
2022/01/14 07:38:13;;;;;;;43.37;18.80;;;;;;;;;;5023355;28;20018;-79
2022/01/14 07:40:39;;;;;;;39.13;18.30;;;;;;;;;;5028991;28;20028;-79
2022/01/14 07:43:05;;;;;;;36.90;17.90;;;;;;;;;;5029421;28;20021;-79
2022/01/14 07:45:30;;;;;;;37.13;19.40;;;;;;;;;;5029487;28;20025;-80
2022/01/14 07:47:55;;;;;;;42.53;18.50;;;;;;;;;;5028907;28;20116;-78
2022/01/14 07:50:20;;;;;;;36.37;16.70;;;;;;;;;;5026487;28;20541;-79
2022/01/14 07:52:45;;;;;;;36.10;17.43;;;;;;;;;;5033785;28;20025;-80
2022/01/14 07:55:11;;;;;;;35.30;19.30;;;;;;;;;;5029163;28;20436;-82
2022/01/14 07:57:36;;;;;;;37.23;19.13;;;;;;;;;;5029036;28;20021;-79
2022/01/14 08:00:03;;;;;;;39.17;19.10;;;;;;;;;;5020789;28;20068;-80
2022/01/14 08:02:29;;;;;;;39.33;19.20;;;;;;;;;;5029026;28;20030;-80
2022/01/14 08:04:55;;;;;;;35.53;18.90;;;;;;;;;;5028497;28;20031;-80
2022/01/14 08:07:22;;;;;;;34.47;17.47;;;;;;;;;;5029607;28;20037;-79
2022/01/14 08:09:48;;;;;;;32.97;17.67;;;;;;;;;;5028613;28;20026;-80
2022/01/14 08:12:13;;;;;;;30.57;16.60;;;;;;;;;;5029140;28;20028;-80
2022/01/14 08:14:38;;;;;;;34.13;17.17;;;;;;;;;;5029249;28;20022;-79
2022/01/14 08:17:05;;;;;;;31.77;16.30;;;;;;;;;;5029232;28;20113;-80
2022/01/14 08:19:33;;;;;;;31.73;17.07;;;;;;;;;;5028804;28;20075;-80
2022/01/14 08:22:02;;;;;;;28.47;14.70;;;;;;;;;;5028862;28;20086;-80
2022/01/14 08:24:27;;;;;;;26.63;14.07;;;;;;;;;;5028778;28;20044;-81
2022/01/14 08:26:52;;;;;;;28.53;14.97;;;;;;;;;;5029136;28;20034;-79
2022/01/14 08:29:17;;;;;;;29.10;14.35;;;;;;;;;;5032953;28;20076;-79
2022/01/14 08:31:43;;;;;;;29.63;14.02;;;;;;;;;;5031277;28;20084;-80
2022/01/14 08:34:08;;;;;;;24.73;14.27;;;;;;;;;;5033179;28;20024;-78
2022/01/14 08:36:33;;;;;;;26.13;13.70;;;;;;;;;;5032906;28;20026;-80
2022/01/14 08:38:59;;;;;;;23.47;12.87;;;;;;;;;;5035818;28;20036;-79
2022/01/14 08:41:28;;;;;;;22.70;12.25;;;;;;;;;;5032788;28;20550;-79
2022/01/14 08:43:54;;;;;;;22.30;12.25;;;;;;;;;;5033456;28;20044;-80
2022/01/14 08:46:19;;;;;;;22.02;11.65;;;;;;;;;;5034888;28;20037;-80
2022/01/14 08:48:44;;;;;;;25.35;12.77;;;;;;;;;;5038107;28;20108;-81
2022/01/14 08:51:09;;;;;;;25.52;12.27;;;;;;;;;;5040541;28;20082;-78
2022/01/14 08:53:34;;;;;;;22.25;11.82;;;;;;;;;;5039963;28;20034;-79
2022/01/14 08:56:00;;;;;;;22.98;12.25;;;;;;;;;;5035406;28;20075;-79
2022/01/14 08:58:25;;;;;;;21.13;12.02;;;;;;;;;;5035165;28;20023;-79
2022/01/14 09:00:52;;;;;;;21.30;11.60;;;;;;;;;;5035463;28;20021;-81
2022/01/14 09:03:17;;;;;;;21.05;11.82;;;;;;;;;;5031465;28;20018;-79
2022/01/14 09:05:42;;;;;;;22.45;12.20;;;;;;;;;;5033772;28;20042;-82
2022/01/14 09:08:08;;;;;;;21.00;11.27;;;;;;;;;;5034562;28;20093;-79
2022/01/14 09:10:33;;;;;;;21.50;11.73;;;;;;;;;;5034266;28;20392;-79
2022/01/14 09:12:58;;;;;;;20.73;11.27;;;;;;;;;;5034276;28;20056;-80
2022/01/14 09:15:23;;;;;;;19.27;11.77;;;;;;;;;;5026720;28;20029;-79
2022/01/14 09:17:48;;;;;;;17.35;10.40;;;;;;;;;;5032883;28;20043;-80
2022/01/14 09:20:14;;;;;;;16.77;10.57;;;;;;;;;;5036636;28;20029;-79
2022/01/14 09:22:42;;;;;;;17.77;10.05;;;;;;;;;;5034677;28;20124;-79
2022/01/14 09:25:08;;;;;;;17.70;10.05;;;;;;;;;;5024866;28;20480;-78
2022/01/14 09:27:34;;;;;;;16.70;9.98;;;;;;;;;;5032693;28;20104;-77
2022/01/14 09:30:00;;;;;;;17.38;9.95;;;;;;;;;;5033051;28;20116;-79
2022/01/14 09:32:25;;;;;;;17.58;9.65;;;;;;;;;;5031621;28;20387;-79
2022/01/14 09:34:50;;;;;;;18.00;9.65;;;;;;;;;;5030564;28;20109;-79
2022/01/14 09:37:15;;;;;;;19.40;10.55;;;;;;;;;;5031533;28;20401;-81
2022/01/14 09:39:43;;;;;;;17.15;8.82;;;;;;;;;;5031182;28;20443;-80
2022/01/14 09:42:09;;;;;;;14.20;9.10;;;;;;;;;;5031038;28;20075;-79
2022/01/14 09:44:34;;;;;;;16.52;9.57;;;;;;;;;;5031531;28;20021;-79
2022/01/14 09:46:59;;;;;;;16.83;9.15;;;;;;;;;;5031454;28;20396;-79
2022/01/14 09:49:24;;;;;;;14.07;9.02;;;;;;;;;;5031747;28;20025;-77
2022/01/14 09:51:49;;;;;;;14.88;8.70;;;;;;;;;;5031250;28;20477;-79
2022/01/14 09:54:15;;;;;;;14.23;8.00;;;;;;;;;;5030052;28;20061;-79
2022/01/14 09:56:41;;;;;;;16.13;8.70;;;;;;;;;;5031078;28;20389;-79
2022/01/14 09:59:07;;;;;;;16.42;8.60;;;;;;;;;;5031384;28;20032;-79
2022/01/14 10:02:00;;;;;;;13.88;8.10;;;;;;;;;;5031155;28;20013;-79
2022/01/14 10:04:25;;;;;;;15.00;7.28;;;;;;;;;;5024014;28;20044;-78
2022/01/14 10:06:51;;;;;;;13.30;7.60;;;;;;;;;;5027862;28;20049;-79
2022/01/14 10:09:19;;;;;;;16.08;8.73;;;;;;;;;;5028259;28;20029;-80
2022/01/14 10:11:58;;;;;;;13.25;8.45;;;;;;;;;;5027577;28;20029;-79
2022/01/14 10:14:24;;;;;;;14.95;8.30;;;;;;;;;;5014835;28;20025;-78
2022/01/14 10:16:53;;;;;;;15.50;8.80;;;;;;;;;;5028195;28;20780;-78
2022/01/14 10:19:28;;;;;;;15.57;8.35;;;;;;;;;;5028102;28;20029;-78
2022/01/14 10:21:54;;;;;;;14.82;8.48;;;;;;;;;;5035615;28;20033;-79
2022/01/14 10:24:21;;;;;;;12.20;8.05;;;;;;;;;;5028028;28;20028;-78
2022/01/14 10:26:50;;;;;;;12.82;7.88;;;;;;;;;;5020894;28;20033;-78
2022/01/14 10:29:25;;;;;;;13.52;7.22;;;;;;;;;;5027832;28;20615;-79
2022/01/14 10:31:50;;;;;;;12.80;7.82;;;;;;;;;;5027583;28;20037;-77
2022/01/14 10:34:16;;;;;;;14.48;7.57;;;;;;;;;;5027460;28;20025;-79
2022/01/14 10:36:42;;;;;;;12.35;7.30;;;;;;;;;;5025785;28;20033;-79
2022/01/14 10:39:21;;;;;;;14.60;7.53;;;;;;;;;;5027818;28;20024;-79
2022/01/14 10:41:46;;;;;;;11.45;6.65;;;;;;;;;;5029000;28;20056;-78
2022/01/14 10:44:28;;;;;;;13.35;7.18;;;;;;;;;;5030003;28;20017;-79
2022/01/14 10:47:09;;;;;;;11.02;6.88;;;;;;;;;;5024064;28;20025;-78
2022/01/14 10:49:34;;;;;;;12.82;7.13;;;;;;;;;;5029163;28;20020;-78
2022/01/14 10:52:15;;;;;;;11.40;6.68;;;;;;;;;;5034415;28;20022;-78
2022/01/14 10:54:42;;;;;;;13.43;7.40;;;;;;;;;;5028183;28;20498;-78
2022/01/14 10:57:11;;;;;;;14.00;6.75;;;;;;;;;;5022086;28;20472;-78
2022/01/14 10:59:36;;;;;;;15.63;7.55;;;;;;;;;;5030491;28;20029;-79
2022/01/14 11:02:01;;;;;;;14.27;7.43;;;;;;;;;;5027922;28;20052;-78
2022/01/14 11:04:27;;;;;;;13.40;7.45;;;;;;;;;;5029536;28;20056;-79
2022/01/14 11:06:52;;;;;;;12.55;6.85;;;;;;;;;;5029469;28;20057;-80
2022/01/14 11:09:18;;;;;;;12.35;7.28;;;;;;;;;;5028894;28;20465;-78
2022/01/14 11:11:48;;;;;;;11.52;7.10;;;;;;;;;;5029534;28;20334;-78
2022/01/14 11:14:16;;;;;;;11.10;6.55;;;;;;;;;;5035764;28;20743;-79
2022/01/14 11:16:42;;;;;;;11.27;6.30;;;;;;;;;;5034926;28;20037;-78
2022/01/14 11:19:09;;;;;;;12.95;6.85;;;;;;;;;;5021870;28;20380;-79
2022/01/14 11:24:23;;;;;;;11.07;6.57;;;;;;;;;;5029861;28;20035;-77
2022/01/14 11:26:49;;;;;;;11.57;6.50;;;;;;;;;;5029584;28;20037;-80
2022/01/14 11:29:16;;;;;;;12.35;6.55;;;;;;;;;;5028642;28;20021;-78
2022/01/14 11:31:42;;;;;;;12.23;6.45;;;;;;;;;;5030574;28;20035;-78
2022/01/14 11:34:08;;;;;;;14.18;6.93;;;;;;;;;;5030319;28;20530;-80
2022/01/14 11:36:53;;;;;;;11.13;7.07;;;;;;;;;;5022960;28;20087;-78
2022/01/14 11:39:19;;;;;;;12.15;7.00;;;;;;;;;;5026335;28;20021;-79
2022/01/14 11:41:52;;;;;;;12.77;7.30;;;;;;;;;;5024466;28;20029;-79
2022/01/14 11:44:36;;;;;;;18.65;7.13;;;;;;;;;;5029277;28;20033;-78
2022/01/14 11:47:01;;;;;;;11.18;6.95;;;;;;;;;;5028681;28;20042;-77
2022/01/14 11:49:30;;;;;;;13.20;6.47;;;;;;;;;;5028769;28;20032;-78
2022/01/14 11:51:56;;;;;;;14.48;6.43;;;;;;;;;;5032323;28;20037;-78
2022/01/14 11:54:35;;;;;;;13.50;6.97;;;;;;;;;;5028771;28;20026;-79
2022/01/14 11:57:01;;;;;;;14.57;6.68;;;;;;;;;;5028995;28;20113;-79
2022/01/14 11:59:26;;;;;;;11.40;7.20;;;;;;;;;;5028769;28;20207;-79
2022/01/14 12:01:52;;;;;;;11.90;6.28;;;;;;;;;;5027084;28;20044;-79
2022/01/14 12:04:18;;;;;;;10.77;6.25;;;;;;;;;;5027258;28;20040;-79
2022/01/14 12:06:49;;;;;;;12.43;6.78;;;;;;;;;;5028459;28;20080;-78
2022/01/14 12:09:14;;;;;;;14.98;6.20;;;;;;;;;;5028620;28;20100;-78
2022/01/14 12:11:39;;;;;;;11.98;6.25;;;;;;;;;;5026760;28;20196;-79
2022/01/14 12:14:06;;;;;;;11.57;5.90;;;;;;;;;;5029234;28;20025;-79
2022/01/14 12:18:57;;;;;;;11.30;5.90;;;;;;;;;;5028559;28;20376;-78
2022/01/14 12:21:37;;;;;;;9.32;5.28;;;;;;;;;;5028950;28;20036;-78
2022/01/14 12:24:22;;;;;;;9.35;4.78;;;;;;;;;;5028284;28;20052;-77
2022/01/14 12:26:57;;;;;;;10.80;5.65;;;;;;;;;;5028229;28;20068;-79
2022/01/14 12:29:35;;;;;;;9.20;5.22;;;;;;;;;;5028590;28;20034;-80
2022/01/14 12:32:01;;;;;;;8.45;5.18;;;;;;;;;;5027305;28;20040;-79
2022/01/14 12:34:26;;;;;;;7.88;5.07;;;;;;;;;;5021122;28;20037;-79
2022/01/14 12:36:51;;;;;;;10.10;4.72;;;;;;;;;;5028434;28;20025;-79
2022/01/14 12:39:17;;;;;;;7.78;4.35;;;;;;;;;;5028138;28;20025;-77
2022/01/14 12:41:42;;;;;;;8.43;4.45;;;;;;;;;;5028382;28;20017;-78
2022/01/14 12:44:08;;;;;;;10.45;4.38;;;;;;;;;;5026516;28;20030;-64
2022/01/14 12:49:27;;;;;;;7.88;3.67;;;;;;;;;;5005190;28;20042;-67
2022/01/14 12:52:02;;;;;;;7.85;4.18;;;;;;;;;;5008960;28;20025;-66
2022/01/14 12:54:31;;;;;;;7.55;4.30;;;;;;;;;;5004257;28;20099;-65
2022/01/14 12:56:57;;;;;;;9.52;4.68;;;;;;;;;;5005205;28;20025;-65
2022/01/14 12:59:23;;;;;;;5.55;3.42;;;;;;;;;;5004532;28;20528;-65
2022/01/14 13:01:49;;;;;;;7.07;4.15;;;;;;;;;;5005277;28;20018;-64
2022/01/14 13:04:15;;;;;;;6.18;3.38;;;;;;;;;;5004475;28;20611;-66
2022/01/14 13:06:42;;;;;;;6.55;3.40;;;;;;;;;;5005208;28;20454;-65
2022/01/14 13:09:07;;;;;;;6.72;3.20;;;;;;;;;;5004893;28;20025;-65
2022/01/14 13:11:44;;;;;;;5.53;3.30;;;;;;;;;;5005063;28;20034;-65
2022/01/14 13:14:15;;;;;;;5.00;3.00;;;;;;;;;;5006445;28;20181;-65
2022/01/14 13:16:44;;;;;;;7.00;3.63;;;;;;;;;;5007589;28;20032;-66
2022/01/14 13:19:25;;;;;;;7.35;3.05;;;;;;;;;;5007845;28;20897;-64
2022/01/14 13:21:51;;;;;;;6.22;2.97;;;;;;;;;;5004211;28;20034;-65
2022/01/14 13:24:20;;;;;;;4.55;2.88;;;;;;;;;;5001351;28;20092;-65
2022/01/14 13:27:03;;;;;;;5.78;2.60;;;;;;;;;;5020212;28;20073;-66
2022/01/14 13:29:45;;;;;;;4.82;2.55;;;;;;;;;;5021158;28;20406;-65
2022/01/14 13:32:11;;;;;;;5.07;2.75;;;;;;;;;;5026483;28;20033;-65
2022/01/14 13:34:37;;;;;;;5.00;2.97;;;;;;;;;;5023877;28;20013;-65
2022/01/14 13:37:03;;;;;;;7.28;3.20;;;;;;;;;;5019690;28;20084;-64
2022/01/14 13:39:28;;;;;;;4.57;2.85;;;;;;;;;;5020668;28;20040;-65
2022/01/14 13:41:53;;;;;;;6.85;2.60;;;;;;;;;;5027038;28;20365;-62
2022/01/14 13:44:20;;;;;;;3.72;2.40;;;;;;;;;;5029000;28;20437;-64
2022/01/14 13:46:47;;;;;;;4.50;2.58;;;;;;;;;;5025335;28;20081;-64
2022/01/14 13:49:20;;;;;;;4.35;2.40;;;;;;;;;;5024261;28;20029;-65
2022/01/14 13:51:46;;;;;;;4.78;2.35;;;;;;;;;;5021191;28;20017;-65
2022/01/14 13:54:15;;;;;;;4.88;1.90;;;;;;;;;;5016449;28;20164;-63
2022/01/14 13:56:41;;;;;;;3.40;1.77;;;;;;;;;;5021937;28;20464;-64
2022/01/14 13:59:06;;;;;;;4.15;2.00;;;;;;;;;;5021365;28;20037;-62
2022/01/14 14:01:31;;;;;;;5.55;1.92;;;;;;;;;;5027777;28;20029;-64
2022/01/14 14:04:04;;;;;;;6.85;2.10;;;;;;;;;;5028648;28;20045;-64
2022/01/14 14:06:41;;;;;;;4.53;2.03;;;;;;;;;;5026271;28;20107;-64
2022/01/14 14:16:47;;;;;;;3.95;1.80;;;;;;;;;;5016107;28;20072;-64
2022/01/14 14:19:12;;;;;;;4.60;1.70;;;;;;;;;;5036939;28;20048;-63
2022/01/14 14:21:39;;;;;;;3.33;1.92;;;;;;;;;;5035676;28;20539;-65
2022/01/14 14:24:08;;;;;;;3.50;1.83;;;;;;;;;;5039151;28;20103;-65
2022/01/14 14:26:33;;;;;;;5.30;2.10;;;;;;;;;;5037605;28;20041;-64
2022/01/14 14:29:22;;;;;;;4.15;2.33;;;;;;;;;;5041320;28;20469;-63
2022/01/14 14:31:47;;;;;;;6.78;2.42;;;;;;;;;;5013538;28;20054;-63
2022/01/14 14:34:12;;;;;;;3.08;1.80;;;;;;;;;;5006240;28;20033;-63
2022/01/14 14:36:38;;;;;;;3.40;2.20;;;;;;;;;;5009454;28;20100;-62
2022/01/14 14:39:04;;;;;;;4.18;2.20;;;;;;;;;;5014688;28;20091;-62
2022/01/14 14:41:29;;;;;;;3.38;2.00;;;;;;;;;;5013148;28;20029;-64
2022/01/14 14:43:54;;;;;;;3.22;2.03;;;;;;;;;;5009069;28;20033;-64
2022/01/14 14:46:20;;;;;;;3.05;1.80;;;;;;;;;;4986082;28;20065;-64
2022/01/14 14:48:45;;;;;;;6.78;1.63;;;;;;;;;;4994834;28;20225;-64
2022/01/14 14:51:11;;;;;;;3.72;1.90;;;;;;;;;;4993992;28;20616;-64
2022/01/14 14:53:36;;;;;;;2.30;1.45;;;;;;;;;;5001469;28;20034;-65
2022/01/14 14:56:02;;;;;;;2.78;1.63;;;;;;;;;;5001814;28;20084;-62
2022/01/14 14:58:27;;;;;;;3.97;1.90;;;;;;;;;;4996429;28;20121;-63
2022/01/14 15:00:53;;;;;;;3.08;1.90;;;;;;;;;;4993963;28;20018;-64
2022/01/14 15:03:18;;;;;;;4.28;2.17;;;;;;;;;;4996119;28;20038;-63